sensor_id;sensor_type;location;lat;lon;timestamp;P1;durP1;ratioP1;P2;durP2;ratioP2
77206;SDS011;66190;50.708;7.906;2023-03-02T00:00:44;10.68;;;4.10;;
77206;SDS011;66190;50.708;7.906;2023-03-02T00:03:12;11.93;;;4.25;;
77206;SDS011;66190;50.708;7.906;2023-03-02T00:05:42;11.75;;;4.28;;
77206;SDS011;66190;50.708;7.906;2023-03-02T00:08:11;12.27;;;4.35;;
77206;SDS011;66190;50.708;7.906;2023-03-02T00:10:39;12.97;;;4.53;;
77206;SDS011;66190;50.708;7.906;2023-03-02T00:13:05;11.43;;;3.58;;
77206;SDS011;66190;50.708;7.906;2023-03-02T00:15:31;12.37;;;4.30;;
77206;SDS011;66190;50.708;7.906;2023-03-02T00:17:56;11.82;;;3.83;;
77206;SDS011;66190;50.708;7.906;2023-03-02T00:20:23;12.23;;;4.33;;
77206;SDS011;66190;50.708;7.906;2023-03-02T00:22:49;10.77;;;4.20;;
77206;SDS011;66190;50.708;7.906;2023-03-02T00:25:15;13.35;;;4.20;;
77206;SDS011;66190;50.708;7.906;2023-03-02T00:27:42;11.43;;;3.58;;
77206;SDS011;66190;50.708;7.906;2023-03-02T00:30:08;13.52;;;4.75;;
77206;SDS011;66190;50.708;7.906;2023-03-02T00:32:36;11.90;;;4.32;;
77206;SDS011;66190;50.708;7.906;2023-03-02T00:35:01;12.13;;;4.10;;
77206;SDS011;66190;50.708;7.906;2023-03-02T00:37:27;11.50;;;4.07;;
77206;SDS011;66190;50.708;7.906;2023-03-02T00:39:53;10.80;;;3.70;;
77206;SDS011;66190;50.708;7.906;2023-03-02T00:42:19;9.37;;;3.70;;
77206;SDS011;66190;50.708;7.906;2023-03-02T00:44:45;11.38;;;4.10;;
77206;SDS011;66190;50.708;7.906;2023-03-02T00:47:12;11.82;;;3.63;;
77206;SDS011;66190;50.708;7.906;2023-03-02T00:49:37;12.67;;;5.00;;
77206;SDS011;66190;50.708;7.906;2023-03-02T00:52:03;13.07;;;4.22;;
77206;SDS011;66190;50.708;7.906;2023-03-02T00:54:30;9.97;;;4.03;;
77206;SDS011;66190;50.708;7.906;2023-03-02T00:56:57;12.40;;;4.43;;
77206;SDS011;66190;50.708;7.906;2023-03-02T00:59:22;10.70;;;4.03;;
77206;SDS011;66190;50.708;7.906;2023-03-02T01:01:51;12.20;;;4.20;;
77206;SDS011;66190;50.708;7.906;2023-03-02T01:04:25;13.57;;;4.72;;
77206;SDS011;66190;50.708;7.906;2023-03-02T01:07:03;13.53;;;4.33;;
77206;SDS011;66190;50.708;7.906;2023-03-02T01:09:34;11.60;;;4.40;;
77206;SDS011;66190;50.708;7.906;2023-03-02T01:12:00;12.50;;;4.55;;
77206;SDS011;66190;50.708;7.906;2023-03-02T01:14:26;12.07;;;4.13;;
77206;SDS011;66190;50.708;7.906;2023-03-02T01:16:53;12.32;;;4.00;;
77206;SDS011;66190;50.708;7.906;2023-03-02T01:19:21;13.18;;;4.35;;
77206;SDS011;66190;50.708;7.906;2023-03-02T01:21:47;9.73;;;3.42;;
77206;SDS011;66190;50.708;7.906;2023-03-02T01:24:13;11.20;;;4.07;;
77206;SDS011;66190;50.708;7.906;2023-03-02T01:26:38;11.88;;;4.25;;
77206;SDS011;66190;50.708;7.906;2023-03-02T01:29:04;10.50;;;3.80;;
77206;SDS011;66190;50.708;7.906;2023-03-02T01:31:30;16.43;;;4.13;;
77206;SDS011;66190;50.708;7.906;2023-03-02T01:33:55;12.07;;;3.88;;
77206;SDS011;66190;50.708;7.906;2023-03-02T01:36:21;14.20;;;4.13;;
77206;SDS011;66190;50.708;7.906;2023-03-02T01:38:48;12.50;;;4.80;;
77206;SDS011;66190;50.708;7.906;2023-03-02T01:41:14;12.80;;;4.20;;
77206;SDS011;66190;50.708;7.906;2023-03-02T01:43:39;14.90;;;4.97;;
77206;SDS011;66190;50.708;7.906;2023-03-02T01:46:05;12.88;;;4.53;;
77206;SDS011;66190;50.708;7.906;2023-03-02T01:48:43;12.90;;;5.05;;
77206;SDS011;66190;50.708;7.906;2023-03-02T01:51:10;10.80;;;4.20;;
77206;SDS011;66190;50.708;7.906;2023-03-02T01:53:40;14.52;;;4.70;;
77206;SDS011;66190;50.708;7.906;2023-03-02T01:56:11;15.05;;;4.57;;
77206;SDS011;66190;50.708;7.906;2023-03-02T01:58:39;12.70;;;4.40;;
77206;SDS011;66190;50.708;7.906;2023-03-02T02:01:06;14.20;;;4.70;;
77206;SDS011;66190;50.708;7.906;2023-03-02T02:03:39;13.52;;;4.90;;
77206;SDS011;66190;50.708;7.906;2023-03-02T02:06:24;11.00;;;4.28;;
77206;SDS011;66190;50.708;7.906;2023-03-02T02:08:55;13.95;;;4.57;;
77206;SDS011;66190;50.708;7.906;2023-03-02T02:11:23;14.60;;;5.03;;
77206;SDS011;66190;50.708;7.906;2023-03-02T02:13:51;13.13;;;4.80;;
77206;SDS011;66190;50.708;7.906;2023-03-02T02:16:20;13.57;;;4.70;;
77206;SDS011;66190;50.708;7.906;2023-03-02T02:18:49;12.50;;;4.22;;
77206;SDS011;66190;50.708;7.906;2023-03-02T02:21:17;13.20;;;4.70;;
77206;SDS011;66190;50.708;7.906;2023-03-02T02:23:49;14.18;;;4.75;;
77206;SDS011;66190;50.708;7.906;2023-03-02T02:26:46;11.97;;;4.57;;
77206;SDS011;66190;50.708;7.906;2023-03-02T02:29:24;10.18;;;3.75;;
77206;SDS011;66190;50.708;7.906;2023-03-02T02:34:45;14.02;;;5.03;;
77206;SDS011;66190;50.708;7.906;2023-03-02T02:37:13;13.15;;;4.88;;
77206;SDS011;66190;50.708;7.906;2023-03-02T02:39:50;13.03;;;4.10;;
77206;SDS011;66190;50.708;7.906;2023-03-02T02:42:17;14.07;;;4.78;;
77206;SDS011;66190;50.708;7.906;2023-03-02T02:44:47;12.18;;;5.05;;
77206;SDS011;66190;50.708;7.906;2023-03-02T02:47:15;11.63;;;4.43;;
77206;SDS011;66190;50.708;7.906;2023-03-02T02:49:43;13.07;;;4.93;;
77206;SDS011;66190;50.708;7.906;2023-03-02T02:52:11;12.93;;;5.27;;
77206;SDS011;66190;50.708;7.906;2023-03-02T02:54:40;14.93;;;4.95;;
77206;SDS011;66190;50.708;7.906;2023-03-02T02:57:10;12.02;;;4.65;;
77206;SDS011;66190;50.708;7.906;2023-03-02T02:59:38;13.48;;;4.50;;
77206;SDS011;66190;50.708;7.906;2023-03-02T03:02:18;12.10;;;5.15;;
77206;SDS011;66190;50.708;7.906;2023-03-02T03:04:45;14.63;;;4.90;;
77206;SDS011;66190;50.708;7.906;2023-03-02T03:07:12;12.30;;;4.57;;
77206;SDS011;66190;50.708;7.906;2023-03-02T03:09:45;12.65;;;4.90;;
77206;SDS011;66190;50.708;7.906;2023-03-02T03:12:19;11.67;;;3.90;;
77206;SDS011;66190;50.708;7.906;2023-03-02T03:14:46;13.02;;;5.32;;
77206;SDS011;66190;50.708;7.906;2023-03-02T03:17:12;11.90;;;4.45;;
77206;SDS011;66190;50.708;7.906;2023-03-02T03:19:39;14.35;;;5.20;;
77206;SDS011;66190;50.708;7.906;2023-03-02T03:22:08;13.30;;;5.20;;
77206;SDS011;66190;50.708;7.906;2023-03-02T03:24:37;12.63;;;4.20;;
77206;SDS011;66190;50.708;7.906;2023-03-02T03:27:08;14.65;;;5.22;;
77206;SDS011;66190;50.708;7.906;2023-03-02T03:29:36;12.25;;;5.47;;
77206;SDS011;66190;50.708;7.906;2023-03-02T03:32:05;14.07;;;4.87;;
77206;SDS011;66190;50.708;7.906;2023-03-02T03:34:33;13.93;;;4.50;;
77206;SDS011;66190;50.708;7.906;2023-03-02T03:37:04;14.15;;;4.72;;
77206;SDS011;66190;50.708;7.906;2023-03-02T03:39:31;15.10;;;4.90;;
77206;SDS011;66190;50.708;7.906;2023-03-02T03:41:57;11.98;;;4.75;;
77206;SDS011;66190;50.708;7.906;2023-03-02T03:44:23;16.20;;;5.03;;
77206;SDS011;66190;50.708;7.906;2023-03-02T03:46:49;11.17;;;4.10;;
77206;SDS011;66190;50.708;7.906;2023-03-02T03:49:15;16.23;;;5.32;;
77206;SDS011;66190;50.708;7.906;2023-03-02T03:51:41;12.25;;;4.63;;
77206;SDS011;66190;50.708;7.906;2023-03-02T03:54:08;14.93;;;4.97;;
77206;SDS011;66190;50.708;7.906;2023-03-02T03:56:41;14.80;;;5.43;;
77206;SDS011;66190;50.708;7.906;2023-03-02T03:59:11;15.40;;;4.87;;
77206;SDS011;66190;50.708;7.906;2023-03-02T04:01:40;10.75;;;3.85;;
77206;SDS011;66190;50.708;7.906;2023-03-02T04:04:10;12.35;;;4.40;;
77206;SDS011;66190;50.708;7.906;2023-03-02T04:06:41;12.20;;;4.30;;
77206;SDS011;66190;50.708;7.906;2023-03-02T04:09:07;13.30;;;4.85;;
77206;SDS011;66190;50.708;7.906;2023-03-02T04:11:41;14.53;;;4.43;;
77206;SDS011;66190;50.708;7.906;2023-03-02T04:14:08;14.63;;;4.15;;
77206;SDS011;66190;50.708;7.906;2023-03-02T04:16:34;14.43;;;4.82;;
77206;SDS011;66190;50.708;7.906;2023-03-02T04:19:01;14.30;;;5.70;;
77206;SDS011;66190;50.708;7.906;2023-03-02T04:21:29;15.00;;;5.63;;
77206;SDS011;66190;50.708;7.906;2023-03-02T04:23:55;13.88;;;5.00;;
77206;SDS011;66190;50.708;7.906;2023-03-02T04:26:20;14.90;;;4.97;;
77206;SDS011;66190;50.708;7.906;2023-03-02T04:28:47;14.98;;;5.38;;
77206;SDS011;66190;50.708;7.906;2023-03-02T04:31:15;12.85;;;4.80;;
77206;SDS011;66190;50.708;7.906;2023-03-02T04:33:41;14.75;;;5.03;;
77206;SDS011;66190;50.708;7.906;2023-03-02T04:36:06;14.33;;;5.10;;
77206;SDS011;66190;50.708;7.906;2023-03-02T04:38:32;13.15;;;5.30;;
77206;SDS011;66190;50.708;7.906;2023-03-02T04:40:58;13.48;;;5.38;;
77206;SDS011;66190;50.708;7.906;2023-03-02T04:43:24;14.20;;;5.47;;
77206;SDS011;66190;50.708;7.906;2023-03-02T04:45:51;14.23;;;5.28;;
77206;SDS011;66190;50.708;7.906;2023-03-02T04:48:18;20.98;;;8.07;;
77206;SDS011;66190;50.708;7.906;2023-03-02T04:50:47;13.95;;;5.75;;
77206;SDS011;66190;50.708;7.906;2023-03-02T04:53:14;15.50;;;5.23;;
77206;SDS011;66190;50.708;7.906;2023-03-02T04:55:40;13.98;;;5.22;;
77206;SDS011;66190;50.708;7.906;2023-03-02T04:58:06;13.77;;;5.32;;
77206;SDS011;66190;50.708;7.906;2023-03-02T05:00:32;15.00;;;5.57;;
77206;SDS011;66190;50.708;7.906;2023-03-02T05:02:59;13.52;;;5.45;;
77206;SDS011;66190;50.708;7.906;2023-03-02T05:05:26;13.18;;;4.82;;
77206;SDS011;66190;50.708;7.906;2023-03-02T05:07:52;17.10;;;5.28;;
77206;SDS011;66190;50.708;7.906;2023-03-02T05:10:18;14.33;;;5.47;;
77206;SDS011;66190;50.708;7.906;2023-03-02T05:12:46;17.25;;;5.70;;
77206;SDS011;66190;50.708;7.906;2023-03-02T05:15:22;13.57;;;5.32;;
77206;SDS011;66190;50.708;7.906;2023-03-02T05:17:52;11.98;;;4.90;;
77206;SDS011;66190;50.708;7.906;2023-03-02T05:20:19;13.32;;;5.03;;
77206;SDS011;66190;50.708;7.906;2023-03-02T05:22:53;14.60;;;5.03;;
77206;SDS011;66190;50.708;7.906;2023-03-02T05:25:23;15.35;;;5.63;;
77206;SDS011;66190;50.708;7.906;2023-03-02T05:27:50;15.27;;;5.47;;
77206;SDS011;66190;50.708;7.906;2023-03-02T05:30:22;12.18;;;4.65;;
77206;SDS011;66190;50.708;7.906;2023-03-02T05:32:48;16.77;;;5.93;;
77206;SDS011;66190;50.708;7.906;2023-03-02T05:35:16;16.25;;;6.93;;
77206;SDS011;66190;50.708;7.906;2023-03-02T05:37:44;17.25;;;6.88;;
77206;SDS011;66190;50.708;7.906;2023-03-02T05:40:11;15.38;;;6.15;;
77206;SDS011;66190;50.708;7.906;2023-03-02T05:42:42;16.25;;;4.93;;
77206;SDS011;66190;50.708;7.906;2023-03-02T05:45:11;14.47;;;4.73;;
77206;SDS011;66190;50.708;7.906;2023-03-02T05:47:42;13.90;;;5.32;;
77206;SDS011;66190;50.708;7.906;2023-03-02T05:50:08;13.73;;;4.63;;
77206;SDS011;66190;50.708;7.906;2023-03-02T05:52:36;12.27;;;5.05;;
77206;SDS011;66190;50.708;7.906;2023-03-02T05:55:02;12.73;;;4.75;;
77206;SDS011;66190;50.708;7.906;2023-03-02T05:57:28;11.77;;;4.95;;
77206;SDS011;66190;50.708;7.906;2023-03-02T05:59:53;13.60;;;5.00;;
77206;SDS011;66190;50.708;7.906;2023-03-02T06:02:19;14.02;;;4.60;;
77206;SDS011;66190;50.708;7.906;2023-03-02T06:04:47;15.23;;;5.28;;
77206;SDS011;66190;50.708;7.906;2023-03-02T06:07:14;13.75;;;4.90;;
77206;SDS011;66190;50.708;7.906;2023-03-02T06:09:40;12.43;;;4.57;;
77206;SDS011;66190;50.708;7.906;2023-03-02T06:12:06;14.10;;;5.03;;
77206;SDS011;66190;50.708;7.906;2023-03-02T06:14:33;16.25;;;4.80;;
77206;SDS011;66190;50.708;7.906;2023-03-02T06:16:59;13.43;;;4.72;;
77206;SDS011;66190;50.708;7.906;2023-03-02T06:19:26;14.87;;;5.17;;
77206;SDS011;66190;50.708;7.906;2023-03-02T06:21:52;13.40;;;4.35;;
77206;SDS011;66190;50.708;7.906;2023-03-02T06:24:17;13.80;;;5.40;;
77206;SDS011;66190;50.708;7.906;2023-03-02T06:26:43;14.25;;;5.00;;
77206;SDS011;66190;50.708;7.906;2023-03-02T06:29:09;17.60;;;5.73;;
77206;SDS011;66190;50.708;7.906;2023-03-02T06:31:35;16.85;;;5.18;;
77206;SDS011;66190;50.708;7.906;2023-03-02T06:34:01;15.20;;;4.77;;
77206;SDS011;66190;50.708;7.906;2023-03-02T06:36:27;15.23;;;5.95;;
77206;SDS011;66190;50.708;7.906;2023-03-02T06:38:53;16.67;;;5.78;;
77206;SDS011;66190;50.708;7.906;2023-03-02T06:41:18;14.03;;;4.43;;
77206;SDS011;66190;50.708;7.906;2023-03-02T06:43:44;15.07;;;5.60;;
77206;SDS011;66190;50.708;7.906;2023-03-02T06:46:10;14.97;;;5.77;;
77206;SDS011;66190;50.708;7.906;2023-03-02T06:48:37;13.70;;;4.78;;
77206;SDS011;66190;50.708;7.906;2023-03-02T06:51:02;13.50;;;4.70;;
77206;SDS011;66190;50.708;7.906;2023-03-02T06:53:28;14.07;;;5.32;;
77206;SDS011;66190;50.708;7.906;2023-03-02T06:55:54;13.95;;;4.45;;
77206;SDS011;66190;50.708;7.906;2023-03-02T06:58:19;13.50;;;5.05;;
77206;SDS011;66190;50.708;7.906;2023-03-02T07:00:45;16.20;;;5.47;;
77206;SDS011;66190;50.708;7.906;2023-03-02T07:03:11;13.63;;;4.80;;
77206;SDS011;66190;50.708;7.906;2023-03-02T07:05:36;13.40;;;4.53;;
77206;SDS011;66190;50.708;7.906;2023-03-02T07:08:02;13.60;;;4.97;;
77206;SDS011;66190;50.708;7.906;2023-03-02T07:10:28;15.57;;;4.65;;
77206;SDS011;66190;50.708;7.906;2023-03-02T07:12:54;14.38;;;5.03;;
77206;SDS011;66190;50.708;7.906;2023-03-02T07:15:19;14.90;;;4.70;;
77206;SDS011;66190;50.708;7.906;2023-03-02T07:17:46;16.15;;;5.50;;
77206;SDS011;66190;50.708;7.906;2023-03-02T07:20:12;14.27;;;4.88;;
77206;SDS011;66190;50.708;7.906;2023-03-02T07:22:40;15.37;;;5.60;;
77206;SDS011;66190;50.708;7.906;2023-03-02T07:25:06;15.98;;;5.82;;
77206;SDS011;66190;50.708;7.906;2023-03-02T07:27:33;13.35;;;4.97;;
77206;SDS011;66190;50.708;7.906;2023-03-02T07:29:58;14.27;;;5.45;;
77206;SDS011;66190;50.708;7.906;2023-03-02T07:32:24;14.77;;;4.90;;
77206;SDS011;66190;50.708;7.906;2023-03-02T07:34:50;13.88;;;5.07;;
77206;SDS011;66190;50.708;7.906;2023-03-02T07:37:17;14.63;;;5.03;;
77206;SDS011;66190;50.708;7.906;2023-03-02T07:39:43;14.23;;;4.93;;
77206;SDS011;66190;50.708;7.906;2023-03-02T07:42:10;13.77;;;5.27;;
77206;SDS011;66190;50.708;7.906;2023-03-02T07:44:36;13.10;;;5.13;;
77206;SDS011;66190;50.708;7.906;2023-03-02T07:47:02;12.60;;;4.95;;
77206;SDS011;66190;50.708;7.906;2023-03-02T07:49:29;12.53;;;5.20;;
77206;SDS011;66190;50.708;7.906;2023-03-02T07:51:54;14.13;;;5.28;;
77206;SDS011;66190;50.708;7.906;2023-03-02T07:54:20;13.23;;;4.32;;
77206;SDS011;66190;50.708;7.906;2023-03-02T07:56:46;14.07;;;5.40;;
77206;SDS011;66190;50.708;7.906;2023-03-02T07:59:12;16.15;;;5.85;;
77206;SDS011;66190;50.708;7.906;2023-03-02T08:01:40;13.70;;;5.45;;
77206;SDS011;66190;50.708;7.906;2023-03-02T08:04:06;14.55;;;5.55;;
77206;SDS011;66190;50.708;7.906;2023-03-02T08:06:32;13.15;;;5.43;;
77206;SDS011;66190;50.708;7.906;2023-03-02T08:08:57;14.00;;;4.97;;
77206;SDS011;66190;50.708;7.906;2023-03-02T08:11:25;13.73;;;5.32;;
77206;SDS011;66190;50.708;7.906;2023-03-02T08:13:51;16.30;;;5.80;;
77206;SDS011;66190;50.708;7.906;2023-03-02T08:16:16;15.33;;;5.87;;
77206;SDS011;66190;50.708;7.906;2023-03-02T08:18:42;14.50;;;5.15;;
77206;SDS011;66190;50.708;7.906;2023-03-02T08:21:15;19.65;;;5.88;;
77206;SDS011;66190;50.708;7.906;2023-03-02T08:23:42;12.68;;;4.43;;
77206;SDS011;66190;50.708;7.906;2023-03-02T08:26:08;14.45;;;5.10;;
77206;SDS011;66190;50.708;7.906;2023-03-02T08:28:34;14.43;;;4.85;;
77206;SDS011;66190;50.708;7.906;2023-03-02T08:31:01;13.43;;;5.13;;
77206;SDS011;66190;50.708;7.906;2023-03-02T08:33:27;16.13;;;5.15;;
77206;SDS011;66190;50.708;7.906;2023-03-02T08:35:55;18.33;;;5.72;;
77206;SDS011;66190;50.708;7.906;2023-03-02T08:38:23;12.75;;;5.38;;
77206;SDS011;66190;50.708;7.906;2023-03-02T08:40:51;14.93;;;5.43;;
77206;SDS011;66190;50.708;7.906;2023-03-02T08:43:17;11.77;;;5.03;;
77206;SDS011;66190;50.708;7.906;2023-03-02T08:45:44;15.20;;;4.78;;
77206;SDS011;66190;50.708;7.906;2023-03-02T08:48:14;13.68;;;5.38;;
77206;SDS011;66190;50.708;7.906;2023-03-02T08:50:39;13.23;;;4.20;;
77206;SDS011;66190;50.708;7.906;2023-03-02T08:53:05;14.93;;;5.55;;
77206;SDS011;66190;50.708;7.906;2023-03-02T08:55:33;13.77;;;6.20;;
77206;SDS011;66190;50.708;7.906;2023-03-02T08:58:00;13.70;;;5.00;;
77206;SDS011;66190;50.708;7.906;2023-03-02T09:00:26;12.70;;;4.75;;
77206;SDS011;66190;50.708;7.906;2023-03-02T09:02:52;13.60;;;5.53;;
77206;SDS011;66190;50.708;7.906;2023-03-02T09:05:17;15.80;;;5.55;;
77206;SDS011;66190;50.708;7.906;2023-03-02T09:07:43;13.73;;;4.82;;
77206;SDS011;66190;50.708;7.906;2023-03-02T09:10:09;13.13;;;4.93;;
77206;SDS011;66190;50.708;7.906;2023-03-02T09:12:35;12.90;;;4.53;;
77206;SDS011;66190;50.708;7.906;2023-03-02T09:15:00;14.17;;;5.10;;
77206;SDS011;66190;50.708;7.906;2023-03-02T09:17:26;12.63;;;5.13;;
77206;SDS011;66190;50.708;7.906;2023-03-02T09:19:52;11.40;;;4.70;;
77206;SDS011;66190;50.708;7.906;2023-03-02T09:22:17;13.10;;;4.43;;
77206;SDS011;66190;50.708;7.906;2023-03-02T09:24:43;15.43;;;4.87;;
77206;SDS011;66190;50.708;7.906;2023-03-02T09:27:09;11.20;;;4.72;;
77206;SDS011;66190;50.708;7.906;2023-03-02T09:29:36;12.30;;;4.20;;
77206;SDS011;66190;50.708;7.906;2023-03-02T09:32:01;12.35;;;4.57;;
77206;SDS011;66190;50.708;7.906;2023-03-02T09:34:27;11.37;;;4.33;;
77206;SDS011;66190;50.708;7.906;2023-03-02T09:36:53;12.48;;;4.45;;
77206;SDS011;66190;50.708;7.906;2023-03-02T09:39:19;12.70;;;3.93;;
77206;SDS011;66190;50.708;7.906;2023-03-02T09:44:33;11.90;;;4.38;;
77206;SDS011;66190;50.708;7.906;2023-03-02T09:47:13;13.13;;;4.30;;
77206;SDS011;66190;50.708;7.906;2023-03-02T09:55:27;10.88;;;3.97;;
77206;SDS011;66190;50.708;7.906;2023-03-02T09:57:56;12.00;;;4.32;;
77206;SDS011;66190;50.708;7.906;2023-03-02T10:02:54;14.03;;;4.57;;
77206;SDS011;66190;50.708;7.906;2023-03-02T10:05:26;12.18;;;3.97;;
77206;SDS011;66190;50.708;7.906;2023-03-02T10:07:55;12.57;;;4.60;;
77206;SDS011;66190;50.708;7.906;2023-03-02T10:18:34;12.50;;;4.13;;
77206;SDS011;66190;50.708;7.906;2023-03-02T10:21:16;11.23;;;4.03;;
77206;SDS011;66190;50.708;7.906;2023-03-02T10:23:52;12.13;;;4.20;;
77206;SDS011;66190;50.708;7.906;2023-03-02T10:26:44;10.87;;;3.63;;
77206;SDS011;66190;50.708;7.906;2023-03-02T10:29:32;11.98;;;3.83;;
77206;SDS011;66190;50.708;7.906;2023-03-02T10:32:28;10.05;;;4.32;;
77206;SDS011;66190;50.708;7.906;2023-03-02T10:34:57;9.57;;;3.95;;
77206;SDS011;66190;50.708;7.906;2023-03-02T10:37:27;10.90;;;3.97;;
77206;SDS011;66190;50.708;7.906;2023-03-02T10:39:55;11.47;;;3.43;;
77206;SDS011;66190;50.708;7.906;2023-03-02T10:42:34;10.75;;;3.80;;
77206;SDS011;66190;50.708;7.906;2023-03-02T10:48:00;9.13;;;3.25;;
77206;SDS011;66190;50.708;7.906;2023-03-02T10:50:27;9.60;;;3.40;;
77206;SDS011;66190;50.708;7.906;2023-03-02T10:52:54;11.90;;;3.47;;
77206;SDS011;66190;50.708;7.906;2023-03-02T10:55:20;12.10;;;3.70;;
77206;SDS011;66190;50.708;7.906;2023-03-02T10:57:55;12.23;;;4.00;;
77206;SDS011;66190;50.708;7.906;2023-03-02T11:00:28;11.03;;;3.50;;
77206;SDS011;66190;50.708;7.906;2023-03-02T11:03:03;9.35;;;2.90;;
77206;SDS011;66190;50.708;7.906;2023-03-02T11:05:34;11.52;;;3.42;;
77206;SDS011;66190;50.708;7.906;2023-03-02T11:08:25;9.93;;;3.50;;
77206;SDS011;66190;50.708;7.906;2023-03-02T11:13:20;10.90;;;3.53;;
77206;SDS011;66190;50.708;7.906;2023-03-02T11:16:00;10.05;;;3.45;;
77206;SDS011;66190;50.708;7.906;2023-03-02T11:19:03;10.23;;;3.40;;
77206;SDS011;66190;50.708;7.906;2023-03-02T11:24:13;10.50;;;3.10;;
77206;SDS011;66190;50.708;7.906;2023-03-02T11:26:53;12.23;;;3.30;;
77206;SDS011;66190;50.708;7.906;2023-03-02T11:29:31;8.77;;;2.88;;
77206;SDS011;66190;50.708;7.906;2023-03-02T11:34:33;9.38;;;3.42;;
77206;SDS011;66190;50.708;7.906;2023-03-02T11:40:44;9.27;;;2.90;;
77206;SDS011;66190;50.708;7.906;2023-03-02T11:42:44;11.10;;;3.40;;
77206;SDS011;66190;50.708;7.906;2023-03-02T11:47:38;10.07;;;2.97;;
77206;SDS011;66190;50.708;7.906;2023-03-02T11:50:11;10.30;;;3.25;;
77206;SDS011;66190;50.708;7.906;2023-03-02T11:52:41;9.55;;;3.20;;
77206;SDS011;66190;50.708;7.906;2023-03-02T11:55:15;10.50;;;3.13;;
77206;SDS011;66190;50.708;7.906;2023-03-02T11:57:48;10.07;;;2.95;;
77206;SDS011;66190;50.708;7.906;2023-03-02T12:00:35;9.43;;;3.30;;
77206;SDS011;66190;50.708;7.906;2023-03-02T12:05:41;9.18;;;3.60;;
77206;SDS011;66190;50.708;7.906;2023-03-02T12:10:55;10.15;;;3.10;;
77206;SDS011;66190;50.708;7.906;2023-03-02T12:13:27;9.43;;;2.83;;
77206;SDS011;66190;50.708;7.906;2023-03-02T12:15:55;8.00;;;2.55;;
77206;SDS011;66190;50.708;7.906;2023-03-02T12:23:40;8.65;;;2.95;;
77206;SDS011;66190;50.708;7.906;2023-03-02T12:28:55;7.32;;;2.70;;
77206;SDS011;66190;50.708;7.906;2023-03-02T12:31:43;10.50;;;2.72;;
77206;SDS011;66190;50.708;7.906;2023-03-02T12:36:48;10.27;;;2.60;;
77206;SDS011;66190;50.708;7.906;2023-03-02T12:45:09;8.88;;;2.92;;
77206;SDS011;66190;50.708;7.906;2023-03-02T12:47:40;7.83;;;2.53;;
77206;SDS011;66190;50.708;7.906;2023-03-02T12:50:18;6.93;;;2.42;;
77206;SDS011;66190;50.708;7.906;2023-03-02T12:53:00;9.90;;;2.58;;
77206;SDS011;66190;50.708;7.906;2023-03-02T12:55:28;8.48;;;2.53;;
77206;SDS011;66190;50.708;7.906;2023-03-02T12:57:56;8.38;;;2.40;;
77206;SDS011;66190;50.708;7.906;2023-03-02T13:00:24;11.77;;;2.70;;
77206;SDS011;66190;50.708;7.906;2023-03-02T13:02:53;8.63;;;3.00;;
77206;SDS011;66190;50.708;7.906;2023-03-02T13:05:27;7.72;;;2.78;;
77206;SDS011;66190;50.708;7.906;2023-03-02T13:07:57;8.57;;;2.22;;
77206;SDS011;66190;50.708;7.906;2023-03-02T13:10:53;8.07;;;2.25;;
77206;SDS011;66190;50.708;7.906;2023-03-02T13:13:25;10.33;;;2.70;;
77206;SDS011;66190;50.708;7.906;2023-03-02T13:16:04;7.75;;;2.35;;
77206;SDS011;66190;50.708;7.906;2023-03-02T13:18:46;9.05;;;2.30;;
77206;SDS011;66190;50.708;7.906;2023-03-02T13:21:14;8.88;;;2.60;;
77206;SDS011;66190;50.708;7.906;2023-03-02T13:23:45;6.75;;;2.08;;
77206;SDS011;66190;50.708;7.906;2023-03-02T13:26:24;7.93;;;2.30;;
77206;SDS011;66190;50.708;7.906;2023-03-02T13:29:26;7.55;;;2.63;;
77206;SDS011;66190;50.708;7.906;2023-03-02T13:31:45;8.98;;;2.67;;
77206;SDS011;66190;50.708;7.906;2023-03-02T13:34:20;8.55;;;2.45;;
77206;SDS011;66190;50.708;7.906;2023-03-02T13:36:52;8.30;;;2.90;;
77206;SDS011;66190;50.708;7.906;2023-03-02T13:39:20;6.88;;;2.38;;
77206;SDS011;66190;50.708;7.906;2023-03-02T13:41:53;9.02;;;2.80;;
77206;SDS011;66190;50.708;7.906;2023-03-02T13:44:27;8.45;;;2.38;;
77206;SDS011;66190;50.708;7.906;2023-03-02T13:46:57;7.15;;;2.50;;
77206;SDS011;66190;50.708;7.906;2023-03-02T13:49:34;7.82;;;2.42;;
77206;SDS011;66190;50.708;7.906;2023-03-02T13:52:02;7.35;;;2.50;;
77206;SDS011;66190;50.708;7.906;2023-03-02T13:54:31;7.65;;;2.60;;
77206;SDS011;66190;50.708;7.906;2023-03-02T13:56:59;9.38;;;2.42;;
77206;SDS011;66190;50.708;7.906;2023-03-02T13:59:27;7.28;;;2.38;;
77206;SDS011;66190;50.708;7.906;2023-03-02T14:01:53;7.95;;;2.78;;
77206;SDS011;66190;50.708;7.906;2023-03-02T14:04:20;7.85;;;2.80;;
77206;SDS011;66190;50.708;7.906;2023-03-02T14:06:50;7.55;;;2.60;;
77206;SDS011;66190;50.708;7.906;2023-03-02T14:09:16;7.35;;;2.75;;
77206;SDS011;66190;50.708;7.906;2023-03-02T14:11:43;8.02;;;3.05;;
77206;SDS011;66190;50.708;7.906;2023-03-02T14:14:13;8.13;;;2.57;;
77206;SDS011;66190;50.708;7.906;2023-03-02T14:16:42;8.60;;;2.88;;
77206;SDS011;66190;50.708;7.906;2023-03-02T14:19:09;8.13;;;3.03;;
77206;SDS011;66190;50.708;7.906;2023-03-02T14:21:37;7.60;;;3.00;;
77206;SDS011;66190;50.708;7.906;2023-03-02T14:24:04;9.25;;;3.80;;
77206;SDS011;66190;50.708;7.906;2023-03-02T14:26:40;11.52;;;4.03;;
77206;SDS011;66190;50.708;7.906;2023-03-02T14:29:19;8.15;;;2.65;;
77206;SDS011;66190;50.708;7.906;2023-03-02T14:31:50;7.55;;;2.80;;
77206;SDS011;66190;50.708;7.906;2023-03-02T14:34:18;8.60;;;2.80;;
77206;SDS011;66190;50.708;7.906;2023-03-02T14:36:45;8.27;;;2.80;;
77206;SDS011;66190;50.708;7.906;2023-03-02T14:39:26;7.53;;;2.50;;
77206;SDS011;66190;50.708;7.906;2023-03-02T14:42:13;7.65;;;2.50;;
77206;SDS011;66190;50.708;7.906;2023-03-02T14:44:42;8.13;;;3.07;;
77206;SDS011;66190;50.708;7.906;2023-03-02T14:47:10;8.02;;;2.65;;
77206;SDS011;66190;50.708;7.906;2023-03-02T14:49:37;8.07;;;2.85;;
77206;SDS011;66190;50.708;7.906;2023-03-02T14:52:14;7.63;;;2.65;;
77206;SDS011;66190;50.708;7.906;2023-03-02T14:55:11;8.65;;;3.28;;
77206;SDS011;66190;50.708;7.906;2023-03-02T14:57:50;7.68;;;2.67;;
77206;SDS011;66190;50.708;7.906;2023-03-02T15:00:18;7.65;;;2.85;;
77206;SDS011;66190;50.708;7.906;2023-03-02T15:02:44;10.93;;;3.38;;
77206;SDS011;66190;50.708;7.906;2023-03-02T15:05:10;8.67;;;3.10;;
77206;SDS011;66190;50.708;7.906;2023-03-02T15:07:36;8.32;;;3.17;;
77206;SDS011;66190;50.708;7.906;2023-03-02T15:10:03;10.00;;;4.05;;
77206;SDS011;66190;50.708;7.906;2023-03-02T15:12:30;9.33;;;3.43;;
77206;SDS011;66190;50.708;7.906;2023-03-02T15:14:56;8.65;;;2.67;;
77206;SDS011;66190;50.708;7.906;2023-03-02T15:17:21;8.23;;;3.23;;
77206;SDS011;66190;50.708;7.906;2023-03-02T15:19:47;8.25;;;2.55;;
77206;SDS011;66190;50.708;7.906;2023-03-02T15:22:13;9.33;;;3.00;;
77206;SDS011;66190;50.708;7.906;2023-03-02T15:24:38;8.43;;;3.10;;
77206;SDS011;66190;50.708;7.906;2023-03-02T15:27:04;8.20;;;3.00;;
77206;SDS011;66190;50.708;7.906;2023-03-02T15:29:30;7.53;;;2.65;;
77206;SDS011;66190;50.708;7.906;2023-03-02T15:31:55;7.22;;;2.67;;
77206;SDS011;66190;50.708;7.906;2023-03-02T15:34:21;9.07;;;4.53;;
77206;SDS011;66190;50.708;7.906;2023-03-02T15:36:46;7.22;;;2.92;;
77206;SDS011;66190;50.708;7.906;2023-03-02T15:39:13;7.40;;;2.60;;
77206;SDS011;66190;50.708;7.906;2023-03-02T15:41:40;9.52;;;2.75;;
77206;SDS011;66190;50.708;7.906;2023-03-02T15:44:06;8.23;;;2.75;;
77206;SDS011;66190;50.708;7.906;2023-03-02T15:46:35;7.57;;;2.20;;
77206;SDS011;66190;50.708;7.906;2023-03-02T15:49:01;8.00;;;2.63;;